Time;durP1;ratioP1;P1;durP2;ratioP2;P2;SDS_P1;SDS_P2;PMS_P1;PMS_P2;Temp;Humidity;BMP_temperature;BMP_pressure;BME280_temperature;BME280_humidity;BME280_pressure;Samples;Min_cycle;Max_cycle;Signal;HPM_P1;HPM_P2
2024/01/18 00:01:20;;;;;;;10.23;9.25;;;;;;;4.58;66.16;94303.34;5138445;27;20196;-70
2024/01/18 00:03:47;;;;;;;9.65;8.75;;;;;;;4.60;66.59;94292.84;5138657;27;20395;-70
2024/01/18 00:06:14;;;;;;;9.93;9.02;;;;;;;4.59;67.16;94291.28;5137986;27;20190;-70
2024/01/18 00:08:41;;;;;;;9.90;8.98;;;;;;;4.59;66.77;94299.47;5138483;27;20318;-70
2024/01/18 00:11:08;;;;;;;9.90;9.00;;;;;;;4.62;66.82;94279.69;5138585;27;20195;-70
2024/01/18 00:13:35;;;;;;;9.68;8.88;;;;;;;4.61;67.39;94285.47;5138107;27;20195;-70
2024/01/18 00:16:04;;;;;;;10.57;9.63;;;;;;;4.62;67.47;94287.06;5138257;27;20183;-71
2024/01/18 00:18:31;;;;;;;9.73;8.93;;;;;;;4.62;68.05;94276.94;5137918;27;20195;-71
2024/01/18 00:20:57;;;;;;;9.80;8.93;;;;;;;4.63;68.12;94275.00;5137870;27;20199;-71
2024/01/18 00:23:25;;;;;;;10.95;9.85;;;;;;;4.63;68.45;94266.81;5138367;27;20195;-71
2024/01/18 00:25:52;;;;;;;9.93;9.13;;;;;;;4.61;68.63;94271.81;5138305;27;20205;-71
2024/01/18 00:28:19;;;;;;;9.93;9.02;;;;;;;4.59;69.02;94263.97;5137199;27;20248;-71
2024/01/18 00:30:45;;;;;;;9.85;8.95;;;;;;;4.56;69.38;94278.28;5138000;27;20553;-71
2024/01/18 00:33:14;;;;;;;10.50;9.50;;;;;;;4.55;69.56;94257.56;5137346;27;20191;-71
2024/01/18 00:35:41;;;;;;;10.38;9.38;;;;;;;4.54;69.90;94264.97;5138126;27;20187;-71
2024/01/18 00:38:08;;;;;;;10.95;9.85;;;;;;;4.50;69.79;94272.22;5137087;27;20566;-71
2024/01/18 00:40:35;;;;;;;11.02;9.93;;;;;;;4.52;69.73;94259.03;5138236;27;20622;-71
2024/01/18 00:43:02;;;;;;;10.60;9.68;;;;;;;4.57;70.33;94263.47;5137094;27;20648;-71
2024/01/18 00:45:29;;;;;;;10.38;9.45;;;;;;;4.56;70.43;94265.41;5137727;27;20187;-70
2024/01/18 00:47:56;;;;;;;10.65;9.75;;;;;;;4.57;70.73;94264.31;5137272;27;20618;-70
2024/01/18 00:50:24;;;;;;;10.85;9.90;;;;;;;4.54;71.27;94264.97;5137113;27;20195;-70
2024/01/18 00:52:51;;;;;;;11.38;10.27;;;;;;;4.52;71.90;94267.22;5137833;27;20195;-70
2024/01/18 00:55:18;;;;;;;10.55;9.55;;;;;;;4.49;72.30;94261.63;5137066;27;20199;-70
2024/01/18 00:57:45;;;;;;;10.05;9.15;;;;;;;4.50;72.44;94255.03;5138123;27;20186;-70
2024/01/18 01:00:14;;;;;;;10.70;9.68;;;;;;;4.49;73.45;94256.16;5137735;27;20207;-71
2024/01/18 01:02:41;;;;;;;10.30;9.40;;;;;;;4.45;73.99;94252.50;5136794;27;20241;-71
2024/01/18 01:05:09;;;;;;;10.60;9.60;;;;;;;4.44;73.48;94237.25;5137584;27;20203;-71
2024/01/18 01:07:37;;;;;;;11.10;10.00;;;;;;;4.45;73.77;94231.47;5137443;27;20199;-71
2024/01/18 01:10:05;;;;;;;10.45;9.55;;;;;;;4.45;73.76;94230.66;5137181;27;20191;-73
2024/01/18 01:12:32;;;;;;;10.30;9.40;;;;;;;4.44;74.04;94218.16;5136698;27;20270;-72
2024/01/18 01:14:59;;;;;;;10.40;9.52;;;;;;;4.41;74.40;94216.88;5136648;27;20191;-72
2024/01/18 01:17:26;;;;;;;10.65;9.55;;;;;;;4.35;75.63;94207.28;5136504;27;20191;-72
2024/01/18 01:19:53;;;;;;;10.70;9.80;;;;;;;4.28;76.09;94215.22;5136401;27;20789;-71
2024/01/18 01:22:20;;;;;;;11.32;10.35;;;;;;;4.26;76.43;94196.44;5136934;27;20198;-70
2024/01/18 01:24:49;;;;;;;11.85;10.82;;;;;;;4.23;76.85;94185.41;5136922;27;20553;-70
2024/01/18 01:27:19;;;;;;;12.70;11.50;;;;;;;4.23;77.01;94188.94;5136831;27;20322;-70
2024/01/18 01:29:45;;;;;;;12.77;11.60;;;;;;;4.23;76.66;94180.75;5137173;27;20252;-71
2024/01/18 01:32:12;;;;;;;12.57;11.48;;;;;;;4.22;77.28;94186.53;5136445;27;20192;-71
2024/01/18 01:34:40;;;;;;;13.20;12.00;;;;;;;4.21;78.08;94204.84;5137116;27;20191;-71
2024/01/18 01:37:07;;;;;;;12.30;11.20;;;;;;;4.22;78.30;94206.44;5137030;27;20240;-71
2024/01/18 01:39:33;;;;;;;13.02;11.88;;;;;;;4.24;78.18;94201.44;5136277;27;20207;-71
2024/01/18 01:42:05;;;;;;;12.32;11.23;;;;;;;4.24;78.17;94181.53;5136694;27;20262;-71
2024/01/18 01:44:32;;;;;;;12.75;11.52;;;;;;;4.21;78.51;94169.38;5136442;27;20667;-71
2024/01/18 01:46:59;;;;;;;12.65;11.55;;;;;;;4.21;78.61;94182.19;5137422;27;20191;-70
2024/01/18 01:49:26;;;;;;;13.00;11.82;;;;;;;4.25;78.26;94170.31;5135410;27;20233;-70
2024/01/18 01:51:54;;;;;;;12.63;11.52;;;;;;;4.25;78.04;94172.22;5136581;27;20203;-70
2024/01/18 01:54:22;;;;;;;12.90;11.70;;;;;;;4.24;77.93;94162.44;5136369;27;20190;-70
2024/01/18 01:56:51;;;;;;;12.80;11.60;;;;;;;4.29;78.15;94173.16;5136541;27;20203;-70
2024/01/18 01:59:20;;;;;;;12.32;11.13;;;;;;;4.27;78.42;94164.50;5136711;27;20531;-70
2024/01/18 02:01:47;;;;;;;12.95;11.88;;;;;;;4.29;78.55;94160.31;5135937;27;20191;-71
2024/01/18 02:04:14;;;;;;;12.10;11.02;;;;;;;4.29;78.80;94154.84;5136196;27;20179;-71
2024/01/18 02:06:42;;;;;;;12.10;11.00;;;;;;;4.30;79.17;94155.63;5136185;27;20203;-71
2024/01/18 02:09:10;;;;;;;12.02;11.02;;;;;;;4.28;79.75;94163.34;5136163;27;20194;-71
2024/01/18 02:11:37;;;;;;;11.48;10.57;;;;;;;4.28;79.81;94163.34;5136279;27;20183;-70
2024/01/18 02:14:05;;;;;;;11.13;10.23;;;;;;;4.31;79.13;94149.84;5136324;27;20179;-70
2024/01/18 02:16:34;;;;;;;11.57;10.63;;;;;;;4.31;78.67;94151.75;5135994;27;20207;-70
2024/01/18 02:19:02;;;;;;;11.52;10.43;;;;;;;4.32;78.60;94148.72;5135251;27;20651;-70
2024/01/18 02:21:29;;;;;;;11.38;10.40;;;;;;;4.34;78.58;94146.44;5136444;27;20282;-70
2024/01/18 02:24:01;;;;;;;11.20;10.23;;;;;;;4.33;78.81;94144.84;5136141;27;20280;-70
2024/01/18 02:26:29;;;;;;;11.93;10.90;;;;;;;4.32;79.21;94147.91;5135786;27;20216;-70
2024/01/18 02:28:57;;;;;;;11.13;10.13;;;;;;;4.33;78.70;94131.19;5135152;27;20235;-70
2024/01/18 02:31:24;;;;;;;11.30;10.30;;;;;;;4.33;78.67;94144.84;5136073;27;20191;-70
2024/01/18 02:33:52;;;;;;;11.57;10.57;;;;;;;4.30;78.91;94120.94;5135491;27;20202;-70
2024/01/18 02:36:20;;;;;;;11.50;10.57;;;;;;;4.22;79.14;94116.38;5135176;27;20616;-70
2024/01/18 02:38:47;;;;;;;11.48;10.48;;;;;;;4.23;79.63;94133.53;5135449;27;20191;-70
2024/01/18 02:41:14;;;;;;;12.02;10.98;;;;;;;4.20;79.81;94115.91;5135870;28;20265;-71
2024/01/18 02:43:43;;;;;;;11.45;10.45;;;;;;;4.20;80.02;94098.72;5135593;28;20187;-71
2024/01/18 02:46:11;;;;;;;11.38;10.38;;;;;;;4.14;79.56;94097.34;5135081;28;20199;-71
2024/01/18 02:48:38;;;;;;;10.10;9.30;;;;;;;4.17;79.88;94094.72;5136192;28;20191;-71
2024/01/18 02:51:05;;;;;;;10.63;9.73;;;;;;;4.19;79.68;94106.13;5135859;28;20228;-71
2024/01/18 02:53:32;;;;;;;11.35;10.32;;;;;;;4.22;79.32;94102.72;5136121;28;20186;-71
2024/01/18 02:55:59;;;;;;;12.38;11.38;;;;;;;4.23;78.75;94111.72;5135184;28;20206;-71
2024/01/18 02:58:26;;;;;;;11.32;10.32;;;;;;;4.26;78.15;94130.16;5136069;28;20190;-71
2024/01/18 03:00:55;;;;;;;12.55;11.48;;;;;;;4.30;78.44;94112.75;5136864;27;20252;-71
2024/01/18 03:03:22;;;;;;;12.25;11.23;;;;;;;4.32;78.30;94117.88;5139374;27;20228;-71
2024/01/18 03:05:49;;;;;;;12.02;11.00;;;;;;;4.34;78.02;94093.78;5139377;27;20187;-71
2024/01/18 03:08:18;;;;;;;11.93;10.93;;;;;;;4.35;78.17;94103.53;5139996;27;20187;-71
2024/01/18 03:10:45;;;;;;;12.55;11.40;;;;;;;4.34;78.76;94110.94;5139217;27;20209;-71
2024/01/18 03:13:11;;;;;;;11.82;10.82;;;;;;;4.32;79.21;94101.47;5139012;27;20256;-71
2024/01/18 03:15:38;;;;;;;12.18;11.18;;;;;;;4.31;79.22;94100.69;5139420;27;20267;-71
2024/01/18 03:18:07;;;;;;;12.32;11.07;;;;;;;4.30;79.22;94104.56;5138877;27;20183;-71
2024/01/18 03:20:34;;;;;;;11.90;10.90;;;;;;;4.30;79.38;94106.50;5138756;27;20229;-71
2024/01/18 03:23:01;;;;;;;12.27;11.18;;;;;;;4.27;79.39;94105.22;5139055;27;20222;-70
2024/01/18 03:25:28;;;;;;;11.98;10.98;;;;;;;4.26;79.59;94091.94;5138739;27;20618;-70
2024/01/18 03:27:55;;;;;;;12.32;11.32;;;;;;;4.23;79.65;94101.59;5138824;27;20299;-70
2024/01/18 03:30:22;;;;;;;15.88;14.48;;;;;;;4.22;79.67;94113.66;5139512;27;20561;-70
2024/01/18 03:32:49;;;;;;;17.38;15.88;;;;;;;4.22;78.99;94110.91;5139270;27;20195;-70
2024/01/18 03:35:18;;;;;;;16.02;14.60;;;;;;;4.24;79.03;94121.47;5138577;27;20582;-70
2024/01/18 03:37:45;;;;;;;16.80;15.40;;;;;;;4.24;79.57;94110.56;5139296;27;20187;-70
2024/01/18 03:40:12;;;;;;;17.05;15.55;;;;;;;4.23;79.09;94103.53;5139176;27;20214;-70
2024/01/18 03:42:42;;;;;;;15.68;14.25;;;;;;;4.22;78.93;94108.19;5138979;27;20191;-70
2024/01/18 03:45:10;;;;;;;16.88;15.40;;;;;;;4.20;79.35;94096.00;5138349;27;20212;-70
2024/01/18 03:47:37;;;;;;;16.33;14.93;;;;;;;4.20;79.48;94096.00;5138615;27;20248;-70
2024/01/18 03:50:05;;;;;;;17.13;15.63;;;;;;;4.23;79.24;94098.06;5138438;27;20248;-70
2024/01/18 03:52:33;;;;;;;16.63;15.23;;;;;;;4.22;79.62;94110.91;5138662;27;20199;-70
2024/01/18 03:55:00;;;;;;;14.57;13.27;;;;;;;4.27;79.31;94107.16;5139022;27;20198;-70
2024/01/18 03:57:27;;;;;;;14.88;13.52;;;;;;;4.28;78.45;94106.81;5138156;27;20191;-70
2024/01/18 03:59:55;;;;;;;14.30;13.13;;;;;;;4.31;78.35;94121.75;5139063;27;20219;-71
2024/01/18 04:02:22;;;;;;;14.38;13.07;;;;;;;4.30;78.40;94110.03;5137928;27;20190;-71
2024/01/18 04:04:49;;;;;;;13.65;12.52;;;;;;;4.31;78.02;94105.34;5138233;27;20187;-71
2024/01/18 04:07:17;;;;;;;13.77;12.52;;;;;;;4.29;78.02;94111.16;5138516;27;20191;-71
2024/01/18 04:09:46;;;;;;;14.60;13.40;;;;;;;4.25;78.42;94106.72;5138141;27;20199;-71
2024/01/18 04:12:14;;;;;;;14.05;12.93;;;;;;;4.23;78.61;94119.91;5137837;27;20191;-71
2024/01/18 04:14:43;;;;;;;14.15;12.95;;;;;;;4.22;79.11;94112.84;5138597;27;20179;-75
2024/01/18 04:17:12;;;;;;;15.45;14.05;;;;;;;4.22;79.17;94116.38;5138246;27;20294;-74
2024/01/18 04:19:39;;;;;;;14.15;12.90;;;;;;;4.21;79.42;94105.78;5138209;27;20199;-71
2024/01/18 04:22:07;;;;;;;14.57;13.30;;;;;;;4.18;78.78;94107.25;5138124;27;20195;-71
2024/01/18 04:24:34;;;;;;;14.80;13.55;;;;;;;4.17;79.41;94111.09;5138070;27;20199;-71
2024/01/18 04:27:02;;;;;;;14.52;13.32;;;;;;;4.19;79.56;94114.31;5137879;27;20198;-71
2024/01/18 04:29:29;;;;;;;13.50;12.38;;;;;;;4.22;79.66;94124.56;5138006;27;20195;-71
2024/01/18 04:31:56;;;;;;;12.80;11.70;;;;;;;4.28;79.61;94131.38;5137928;27;20539;-70
2024/01/18 04:34:23;;;;;;;12.30;11.15;;;;;;;4.35;78.72;94125.38;5137896;27;20195;-71
2024/01/18 04:36:50;;;;;;;11.45;10.35;;;;;;;4.35;78.87;94123.44;5137803;27;20266;-72
2024/01/18 04:39:17;;;;;;;11.60;10.50;;;;;;;4.32;78.85;94126.88;5137586;27;20202;-74
2024/01/18 04:41:44;;;;;;;11.10;10.10;;;;;;;4.33;78.75;94101.16;5137971;27;20211;-74
2024/01/18 04:44:13;;;;;;;11.38;10.32;;;;;;;4.36;78.66;94107.88;5137619;27;20191;-74
2024/01/18 04:46:40;;;;;;;10.82;9.82;;;;;;;4.33;78.47;94105.84;5137670;27;20229;-74
2024/01/18 04:49:07;;;;;;;10.88;9.88;;;;;;;4.36;78.29;94088.78;5137901;27;20195;-74
2024/01/18 04:51:34;;;;;;;12.40;11.10;;;;;;;4.34;78.54;94105.47;5137062;27;20187;-74
2024/01/18 04:54:00;;;;;;;12.95;11.77;;;;;;;4.25;78.18;94104.78;5137897;27;20203;-71
2024/01/18 04:56:28;;;;;;;12.70;11.52;;;;;;;4.29;78.61;94100.25;5137989;27;20199;-72
2024/01/18 04:58:56;;;;;;;14.40;13.10;;;;;;;4.30;78.76;94101.84;5137457;27;20195;-72
2024/01/18 05:01:24;;;;;;;13.45;12.27;;;;;;;4.28;78.75;94104.09;5137249;27;20225;-72
2024/01/18 05:03:51;;;;;;;13.75;12.55;;;;;;;4.28;78.31;94095.91;5137307;27;20188;-72
2024/01/18 05:06:18;;;;;;;13.75;12.55;;;;;;;4.28;78.49;94103.28;5136680;27;20195;-73
2024/01/18 05:08:46;;;;;;;14.40;13.10;;;;;;;4.23;78.67;94107.03;5137500;27;20199;-72
2024/01/18 05:11:13;;;;;;;16.10;14.80;;;;;;;4.20;78.78;94112.38;5136686;27;20629;-72
2024/01/18 05:13:40;;;;;;;14.93;13.63;;;;;;;4.10;79.46;94125.31;5137159;27;20203;-72
2024/01/18 05:16:07;;;;;;;13.45;12.25;;;;;;;4.05;79.64;94132.91;5137455;27;20248;-72
2024/01/18 05:18:36;;;;;;;13.05;11.88;;;;;;;4.12;79.72;94108.59;5136567;27;20225;-72
2024/01/18 05:21:03;;;;;;;13.70;12.50;;;;;;;4.17;79.73;94115.78;5136530;27;20245;-72
2024/01/18 05:23:30;;;;;;;13.68;12.48;;;;;;;4.18;79.37;94122.84;5136650;27;20198;-72
2024/01/18 05:25:57;;;;;;;13.65;12.55;;;;;;;4.18;79.41;94123.63;5136890;27;20247;-71
2024/01/18 05:28:24;;;;;;;14.45;13.10;;;;;;;4.17;79.42;94124.75;5136443;27;20330;-72
2024/01/18 05:30:52;;;;;;;14.20;13.07;;;;;;;4.21;79.82;94133.91;5136541;27;20202;-74
2024/01/18 05:33:19;;;;;;;14.93;13.73;;;;;;;4.26;79.48;94143.78;5136961;27;20194;-72
2024/01/18 05:35:48;;;;;;;15.93;14.45;;;;;;;4.35;79.28;94119.94;5137258;27;20505;-72
2024/01/18 05:38:15;;;;;;;16.73;15.23;;;;;;;4.39;79.29;94111.84;5137215;27;20202;-76
2024/01/18 05:40:43;;;;;;;15.40;14.15;;;;;;;4.42;78.64;94116.66;5137256;27;20275;-73
2024/01/18 05:43:10;;;;;;;15.93;14.57;;;;;;;4.33;79.10;94122.22;5137106;27;20199;-74
2024/01/18 05:45:37;;;;;;;15.18;13.88;;;;;;;4.27;79.17;94120.81;5136820;27;20195;-74
2024/01/18 05:48:04;;;;;;;15.65;14.30;;;;;;;4.28;79.18;94117.75;5136129;27;20610;-74
2024/01/18 05:50:32;;;;;;;18.58;16.88;;;;;;;4.23;79.61;94114.44;5136015;27;20610;-74
2024/01/18 05:53:00;;;;;;;15.35;13.98;;;;;;;4.29;79.62;94121.28;5136876;27;20191;-74
2024/01/18 05:55:27;;;;;;;16.33;14.88;;;;;;;4.38;79.33;94113.00;5136094;27;20243;-74
2024/01/18 05:57:54;;;;;;;15.77;14.38;;;;;;;4.37;79.50;94116.88;5136331;27;20257;-74
2024/01/18 06:00:21;;;;;;;17.08;15.77;;;;;;;4.33;79.30;94128.47;5136121;27;20199;-74
2024/01/18 06:02:48;;;;;;;16.08;14.57;;;;;;;4.30;79.52;94122.88;5136129;27;20614;-72
2024/01/18 06:05:15;;;;;;;15.68;14.27;;;;;;;4.37;79.55;94111.41;5136020;27;20202;-72
2024/01/18 06:07:42;;;;;;;16.30;15.00;;;;;;;4.40;79.41;94125.19;5136103;27;20194;-74
2024/01/18 06:10:11;;;;;;;16.42;14.88;;;;;;;4.40;79.60;94130.66;5136675;27;20218;-74
2024/01/18 06:12:38;;;;;;;14.43;13.23;;;;;;;4.38;79.53;94124.72;5136683;27;20599;-75
2024/01/18 06:15:06;;;;;;;19.67;17.95;;;;;;;4.43;79.97;94116.34;5136265;27;20591;-75
2024/01/18 06:17:33;;;;;;;16.67;15.30;;;;;;;4.41;79.95;94115.06;5135620;27;20199;-74
2024/01/18 06:20:01;;;;;;;14.65;13.38;;;;;;;4.41;79.92;94117.78;5136260;27;20190;-74
2024/01/18 06:22:28;;;;;;;11.70;10.70;;;;;;;4.50;79.88;94116.59;5136609;27;20242;-73
2024/01/18 06:24:55;;;;;;;12.65;11.55;;;;;;;4.51;79.97;94129.09;5136790;27;20208;-73
2024/01/18 06:27:23;;;;;;;13.00;11.80;;;;;;;4.55;79.79;94126.47;5136070;27;20236;-72
2024/01/18 06:29:52;;;;;;;13.68;12.45;;;;;;;4.63;80.30;94139.25;5136296;27;20191;-72
2024/01/18 06:32:19;;;;;;;14.70;13.35;;;;;;;4.68;79.90;94127.28;5135612;27;20514;-72
2024/01/18 06:34:46;;;;;;;16.23;14.70;;;;;;;4.73;79.82;94127.09;5135352;27;20199;-72
2024/01/18 06:37:13;;;;;;;17.13;15.63;;;;;;;4.77;79.59;94130.75;5135189;27;20248;-72
2024/01/18 06:39:40;;;;;;;16.30;14.80;;;;;;;4.82;80.01;94117.63;5135370;27;20217;-72
2024/01/18 06:42:08;;;;;;;17.00;15.45;;;;;;;4.85;79.66;94099.78;5136161;27;20211;-73
2024/01/18 06:44:36;;;;;;;17.48;15.98;;;;;;;4.78;80.01;94108.53;5136493;27;20274;-71
2024/01/18 06:47:03;;;;;;;17.35;15.75;;;;;;;4.80;79.89;94116.41;5136480;27;20225;-72
2024/01/18 06:49:30;;;;;;;14.73;13.40;;;;;;;4.88;79.89;94110.03;5136837;27;20200;-73
2024/01/18 06:51:57;;;;;;;15.30;13.90;;;;;;;4.96;80.06;94102.88;5136467;28;20231;-72
2024/01/18 06:54:24;;;;;;;15.20;13.82;;;;;;;4.97;79.90;94118.13;5135962;28;20244;-71
2024/01/18 06:56:51;;;;;;;14.23;12.82;;;;;;;5.00;80.11;94101.03;5135471;28;20201;-71
2024/01/18 06:59:18;;;;;;;13.50;12.23;;;;;;;5.10;79.82;94114.25;5135530;28;20195;-73
2024/01/18 07:01:47;;;;;;;13.18;11.98;;;;;;;5.16;79.53;94098.44;5135819;28;20503;-73
2024/01/18 07:04:14;;;;;;;13.63;12.18;;;;;;;5.22;79.67;94099.78;5135594;28;20190;-73
2024/01/18 07:06:41;;;;;;;11.77;10.68;;;;;;;5.24;80.08;94083.84;5135165;28;20252;-72
2024/01/18 07:09:08;;;;;;;13.63;12.23;;;;;;;5.32;79.62;94069.25;5135049;28;20202;-69
2024/01/18 07:11:35;;;;;;;12.75;11.65;;;;;;;5.31;79.59;94079.41;5135662;28;20199;-70
2024/01/18 07:14:02;;;;;;;12.52;11.30;;;;;;;5.34;79.44;94067.00;5134914;28;20267;-70
2024/01/18 07:16:29;;;;;;;11.23;10.13;;;;;;;5.41;79.49;94050.78;5135274;28;20252;-70
2024/01/18 07:18:57;;;;;;;17.73;15.88;;;;;;;5.46;79.75;94045.06;5134982;28;20191;-72
2024/01/18 07:21:24;;;;;;;13.40;12.13;;;;;;;5.45;79.77;94024.34;5135396;28;20214;-71
2024/01/18 07:23:51;;;;;;;12.13;11.02;;;;;;;5.49;79.94;94000.63;5135696;28;20210;-69
2024/01/18 07:26:18;;;;;;;13.18;11.98;;;;;;;5.47;79.83;94002.13;5135668;28;20195;-68
2024/01/18 07:28:45;;;;;;;11.80;10.60;;;;;;;5.46;80.34;93952.09;5134792;28;20231;-68
2024/01/18 07:31:14;;;;;;;12.63;11.52;;;;;;;5.46;80.82;94001.31;5134880;28;20195;-68
2024/01/18 07:33:41;;;;;;;11.73;10.63;;;;;;;5.48;80.59;93993.59;5135796;28;20191;-73
2024/01/18 07:36:09;;;;;;;10.95;10.02;;;;;;;5.55;80.08;93960.97;5135912;28;20252;-72
2024/01/18 07:38:37;;;;;;;11.00;10.00;;;;;;;5.61;80.27;93985.31;5135390;28;20199;-74
2024/01/18 07:41:04;;;;;;;10.93;10.02;;;;;;;5.66;79.76;93952.22;5134764;28;20706;-73
2024/01/18 07:43:31;;;;;;;12.40;11.30;;;;;;;5.76;80.13;93987.31;5135164;28;20302;-74
2024/01/18 07:45:58;;;;;;;11.85;10.73;;;;;;;5.77;79.48;93937.72;5135615;28;20191;-71
2024/01/18 07:48:25;;;;;;;10.73;9.82;;;;;;;5.82;80.11;93971.44;5137635;27;20195;-71
2024/01/18 07:50:52;;;;;;;10.00;9.10;;;;;;;5.91;79.89;93958.38;5139183;27;20287;-68
2024/01/18 07:53:20;;;;;;;11.25;10.25;;;;;;;5.97;79.45;93957.81;5138296;27;20199;-68
2024/01/18 07:55:47;;;;;;;13.00;11.80;;;;;;;6.06;79.69;93941.22;5137949;27;20479;-67
2024/01/18 07:58:15;;;;;;;11.52;10.43;;;;;;;6.18;79.55;93938.41;5138460;27;20255;-67
2024/01/18 08:00:43;;;;;;;12.82;11.63;;;;;;;6.23;79.37;93937.34;5138628;27;20220;-74
2024/01/18 08:03:10;;;;;;;13.25;12.13;;;;;;;6.29;79.33;93932.44;5138808;27;20305;-74
2024/01/18 08:05:36;;;;;;;19.10;17.33;;;;;;;6.31;79.00;93941.06;5138763;27;20216;-74
2024/01/18 08:08:04;;;;;;;17.05;15.45;;;;;;;6.38;78.88;93927.53;5138198;27;20507;-74
2024/01/18 08:10:32;;;;;;;21.45;19.55;;;;;;;6.49;78.76;93912.16;5138591;27;20199;-74
2024/01/18 08:13:01;;;;;;;22.48;20.27;;;;;;;6.58;78.56;93910.06;5138278;27;20263;-74
2024/01/18 08:15:28;;;;;;;25.00;22.70;;;;;;;6.65;78.77;93912.97;5138440;27;20199;-74
2024/01/18 08:17:55;;;;;;;20.98;19.17;;;;;;;6.67;78.31;93934.50;5138117;27;20210;-73
2024/01/18 08:20:23;;;;;;;21.63;19.52;;;;;;;6.68;77.90;93922.38;5138225;27;20195;-73
2024/01/18 08:22:50;;;;;;;21.52;19.42;;;;;;;6.67;77.59;93913.38;5138570;27;20318;-73
2024/01/18 08:25:18;;;;;;;19.00;17.30;;;;;;;6.63;77.93;93928.16;5138587;27;20209;-72
2024/01/18 08:27:46;;;;;;;19.05;17.38;;;;;;;6.56;78.17;93920.56;5137804;27;20261;-74
2024/01/18 08:30:13;;;;;;;16.42;14.80;;;;;;;6.54;77.32;93908.38;5137757;27;20242;-74
2024/01/18 08:32:40;;;;;;;16.63;15.02;;;;;;;6.49;77.71;93914.91;5138489;27;20244;-74
2024/01/18 08:35:08;;;;;;;17.65;15.95;;;;;;;6.48;77.64;93905.91;5138373;27;20191;-74
2024/01/18 08:37:37;;;;;;;16.90;15.27;;;;;;;6.48;77.07;93918.81;5138477;27;20564;-74
2024/01/18 08:40:05;;;;;;;17.75;16.15;;;;;;;6.46;77.05;93923.81;5138069;27;20191;-74
2024/01/18 08:42:32;;;;;;;16.65;15.10;;;;;;;6.45;77.16;93925.78;5137953;27;20210;-74
2024/01/18 08:45:00;;;;;;;17.15;15.55;;;;;;;6.47;77.23;93912.53;5137602;27;20619;-74
2024/01/18 08:47:27;;;;;;;16.92;15.40;;;;;;;6.49;77.28;93932.13;5138180;27;20223;-74
2024/01/18 08:49:54;;;;;;;15.98;14.38;;;;;;;6.51;77.38;93929.06;5137997;27;20610;-74
2024/01/18 08:52:21;;;;;;;15.48;13.98;;;;;;;6.54;77.50;93911.91;5138158;27;20187;-74
2024/01/18 08:54:48;;;;;;;15.90;14.50;;;;;;;6.55;77.37;93913.50;5138000;27;20188;-74
2024/01/18 08:57:17;;;;;;;24.30;21.98;;;;;;;6.56;77.75;93904.13;5137664;27;20586;-74
2024/01/18 08:59:44;;;;;;;29.02;26.42;;;;;;;6.58;77.76;93912.78;5137770;27;20286;-73
2024/01/18 09:02:13;;;;;;;25.27;23.10;;;;;;;6.63;77.47;93907.03;5137940;27;20313;-74
2024/01/18 09:04:40;;;;;;;28.45;25.88;;;;;;;6.67;77.29;93907.91;5138112;27;20176;-74
2024/01/18 09:07:07;;;;;;;21.13;19.23;;;;;;;6.68;77.61;93909.50;5137032;27;20203;-73
2024/01/18 09:09:34;;;;;;;20.17;18.17;;;;;;;6.68;77.69;93931.44;5137505;27;20187;-73
2024/01/18 09:12:01;;;;;;;16.55;14.90;;;;;;;6.74;77.48;93918.22;5137163;27;20602;-74
2024/01/18 09:14:28;;;;;;;15.23;13.73;;;;;;;6.79;77.35;93893.31;5137054;27;20203;-72
2024/01/18 09:16:55;;;;;;;14.77;13.35;;;;;;;6.81;77.60;93915.66;5137869;27;20240;-75
2024/01/18 09:19:23;;;;;;;15.13;13.73;;;;;;;6.83;77.33;93907.09;5137749;27;20566;-72
2024/01/18 09:21:50;;;;;;;13.23;12.02;;;;;;;6.89;77.28;93894.69;5137761;27;20264;-74
2024/01/18 09:24:19;;;;;;;14.23;12.85;;;;;;;6.96;77.04;93889.34;5136997;27;20232;-74
2024/01/18 09:26:47;;;;;;;12.90;11.70;;;;;;;7.08;76.97;93894.72;5137195;27;20198;-71
2024/01/18 09:29:14;;;;;;;14.65;13.25;;;;;;;7.19;77.08;93878.50;5136617;27;20258;-71
2024/01/18 09:31:41;;;;;;;13.88;12.57;;;;;;;7.28;77.10;93824.22;5137479;27;20195;-74
2024/01/18 09:34:08;;;;;;;13.27;12.18;;;;;;;7.49;77.57;93840.28;5137735;27;20198;-75
2024/01/18 09:36:37;;;;;;;16.55;15.02;;;;;;;7.70;77.27;93850.88;5137131;27;20202;-74
2024/01/18 09:39:07;;;;;;;18.52;16.83;;;;;;;7.90;76.53;93851.63;5136415;27;20195;-74
2024/01/18 09:41:35;;;;;;;16.25;14.73;;;;;;;8.02;75.59;93854.19;5137269;27;20251;-74
2024/01/18 09:44:04;;;;;;;17.20;15.10;;;;;;;8.32;75.36;93870.00;5137250;27;20183;-74
2024/01/18 09:46:32;;;;;;;15.10;12.98;;;;;;;8.52;73.51;93837.75;5137214;27;20203;-74
2024/01/18 09:48:59;;;;;;;14.70;13.30;;;;;;;8.90;74.23;93837.53;5136586;27;20187;-74
2024/01/18 09:51:26;;;;;;;14.15;12.82;;;;;;;9.59;73.26;93806.91;5136761;27;20603;-73
2024/01/18 09:53:55;;;;;;;14.52;13.23;;;;;;;10.09;71.06;93812.91;5136707;27;20199;-74
2024/01/18 09:56:28;;;;;;;13.43;12.23;;;;;;;10.73;68.43;93807.13;5137594;27;20183;-74
2024/01/18 09:58:55;;;;;;;12.85;11.57;;;;;;;10.99;66.79;93784.00;5136690;27;20290;-74
2024/01/18 10:01:23;;;;;;;11.80;10.70;;;;;;;11.63;65.92;93785.44;5137085;27;20210;-74
2024/01/18 10:03:51;;;;;;;11.45;10.45;;;;;;;12.29;63.98;93780.41;5136831;27;20203;-74
2024/01/18 10:06:19;;;;;;;11.48;10.48;;;;;;;12.68;61.80;93774.88;5136214;27;20190;-73
2024/01/18 10:08:46;;;;;;;11.48;10.48;;;;;;;13.09;60.43;93763.28;5136357;27;20205;-74
2024/01/18 10:11:15;;;;;;;12.15;10.90;;;;;;;13.28;58.76;93744.66;5135811;27;20202;-73
2024/01/18 10:13:55;;;;;;;11.27;10.27;;;;;;;13.27;58.31;93743.88;5136394;27;20506;-73
2024/01/18 10:16:29;;;;;;;10.93;9.93;;;;;;;13.12;58.73;93734.03;5135539;27;20191;-73
2024/01/18 10:18:56;;;;;;;12.98;11.77;;;;;;;12.85;59.95;93726.19;5135403;27;20195;-75
2024/01/18 10:21:24;;;;;;;13.10;11.82;;;;;;;12.67;60.49;93729.03;5136300;27;20257;-74
2024/01/18 10:23:52;;;;;;;22.90;20.80;;;;;;;12.34;60.02;93716.41;5135337;27;20223;-74
2024/01/18 10:26:21;;;;;;;17.52;15.80;;;;;;;12.01;61.26;93721.19;5136647;27;20175;-74
2024/01/18 10:28:48;;;;;;;17.38;15.88;;;;;;;12.02;62.35;93725.53;5136151;27;20287;-74
2024/01/18 10:31:18;;;;;;;13.57;12.35;;;;;;;12.37;61.19;93734.19;5136206;27;20641;-74
2024/01/18 10:33:46;;;;;;;14.20;12.90;;;;;;;12.91;60.77;93726.59;5136511;27;20179;-74
2024/01/18 10:36:13;;;;;;;14.60;13.23;;;;;;;13.42;58.20;93712.16;5135728;27;20680;-74
2024/01/18 10:38:41;;;;;;;14.55;13.15;;;;;;;13.75;58.48;93715.53;5136129;27;20183;-74
2024/01/18 10:41:08;;;;;;;13.95;12.65;;;;;;;14.40;56.00;93704.72;5135929;27;20290;-74
2024/01/18 10:43:37;;;;;;;15.73;14.13;;;;;;;14.74;54.81;93698.47;5135090;27;20698;-74
2024/01/18 10:46:05;;;;;;;16.38;14.88;;;;;;;14.88;53.97;93687.97;5135409;28;20197;-73
2024/01/18 10:48:33;;;;;;;16.80;15.00;;;;;;;14.99;53.55;93664.88;5135983;28;20278;-74
2024/01/18 10:51:01;;;;;;;19.55;17.75;;;;;;;14.88;53.77;93662.22;5135998;27;20175;-74
2024/01/18 10:53:33;;;;;;;15.00;13.43;;;;;;;14.90;54.21;93662.59;5135054;28;20618;-74
2024/01/18 10:56:00;;;;;;;15.52;14.02;;;;;;;14.77;54.26;93656.78;5135587;28;20533;-74
2024/01/18 10:58:27;;;;;;;15.73;13.07;;;;;;;14.31;55.90;93654.50;5135534;28;20195;-74
2024/01/18 11:00:56;;;;;;;13.27;12.07;;;;;;;13.74;57.04;93683.47;5135642;28;20225;-74
2024/01/18 11:03:24;;;;;;;16.10;13.02;;;;;;;13.77;57.49;93665.25;5135176;28;20226;-74
2024/01/18 11:05:51;;;;;;;14.90;13.38;;;;;;;13.38;58.69;93685.69;5135203;28;20201;-74
2024/01/18 11:08:18;;;;;;;12.52;11.45;;;;;;;13.04;59.69;93646.69;5136464;27;20230;-74
2024/01/18 11:10:46;;;;;;;12.30;11.10;;;;;;;13.27;60.46;93674.66;5135062;28;20195;-74
2024/01/18 11:13:14;;;;;;;12.18;10.98;;;;;;;13.84;59.14;93665.19;5134867;28;20194;-73
2024/01/18 11:15:44;;;;;;;12.15;10.95;;;;;;;14.33;58.18;93632.66;5136002;28;20188;-74
2024/01/18 11:18:14;;;;;;;11.63;10.43;;;;;;;14.59;56.17;93640.34;5135952;28;20518;-74
2024/01/18 11:21:04;;;;;;;11.27;10.27;;;;;;;15.12;54.90;93615.94;5135604;28;20214;-74
2024/01/18 11:23:35;;;;;;;9.70;8.80;;;;;;;15.72;53.20;93611.50;5139541;27;20239;-74
2024/01/18 11:26:04;;;;;;;10.10;9.02;;;;;;;16.13;52.35;93602.09;5139690;27;20229;-69
2024/01/18 11:28:31;;;;;;;10.05;9.13;;;;;;;16.48;51.33;93609.00;5139708;27;20303;-72